sensor_id;sensor_type;location;lat;lon;timestamp;P1;durP1;ratioP1;P2;durP2;ratioP2
30048;SDS011;16879;50.852;15.602;2022-10-16T00:01:17;4.57;;;4.07;;
30048;SDS011;16879;50.852;15.602;2022-10-16T00:03:44;7.03;;;4.75;;
30048;SDS011;16879;50.852;15.602;2022-10-16T00:06:12;4.82;;;4.32;;
30048;SDS011;16879;50.852;15.602;2022-10-16T00:08:38;7.80;;;4.28;;
30048;SDS011;16879;50.852;15.602;2022-10-16T00:13:31;4.60;;;4.13;;
30048;SDS011;16879;50.852;15.602;2022-10-16T00:15:58;8.13;;;4.57;;
30048;SDS011;16879;50.852;15.602;2022-10-16T00:18:26;4.20;;;3.80;;
30048;SDS011;16879;50.852;15.602;2022-10-16T00:20:52;4.13;;;3.55;;
30048;SDS011;16879;50.852;15.602;2022-10-16T00:23:18;5.25;;;3.28;;
30048;SDS011;16879;50.852;15.602;2022-10-16T00:25:45;4.10;;;3.70;;
30048;SDS011;16879;50.852;15.602;2022-10-16T00:28:19;3.95;;;3.50;;
30048;SDS011;16879;50.852;15.602;2022-10-16T00:30:46;4.07;;;3.65;;
30048;SDS011;16879;50.852;15.602;2022-10-16T00:33:12;6.88;;;5.03;;
30048;SDS011;16879;50.852;15.602;2022-10-16T00:35:38;8.45;;;5.65;;
30048;SDS011;16879;50.852;15.602;2022-10-16T00:38:04;5.47;;;4.97;;
30048;SDS011;16879;50.852;15.602;2022-10-16T00:40:30;5.93;;;5.13;;
30048;SDS011;16879;50.852;15.602;2022-10-16T00:42:57;6.45;;;5.32;;
30048;SDS011;16879;50.852;15.602;2022-10-16T00:45:23;6.35;;;4.95;;
30048;SDS011;16879;50.852;15.602;2022-10-16T00:47:50;5.43;;;4.93;;
30048;SDS011;16879;50.852;15.602;2022-10-16T00:52:44;6.38;;;4.47;;
30048;SDS011;16879;50.852;15.602;2022-10-16T00:55:12;5.35;;;4.65;;
30048;SDS011;16879;50.852;15.602;2022-10-16T00:57:38;5.03;;;4.53;;
30048;SDS011;16879;50.852;15.602;2022-10-16T01:00:06;6.07;;;5.47;;
30048;SDS011;16879;50.852;15.602;2022-10-16T01:02:33;7.18;;;4.47;;
30048;SDS011;16879;50.852;15.602;2022-10-16T01:05:00;9.50;;;7.15;;
30048;SDS011;16879;50.852;15.602;2022-10-16T01:12:51;23.70;;;14.38;;
30048;SDS011;16879;50.852;15.602;2022-10-16T01:29:17;3.90;;;3.55;;
30048;SDS011;16879;50.852;15.602;2022-10-16T01:31:24;2.80;;;2.60;;
30048;SDS011;16879;50.852;15.602;2022-10-16T01:33:56;3.20;;;2.90;;
30048;SDS011;16879;50.852;15.602;2022-10-16T01:36:25;4.05;;;3.65;;
30048;SDS011;16879;50.852;15.602;2022-10-16T01:38:54;3.42;;;3.13;;
30048;SDS011;16879;50.852;15.602;2022-10-16T01:41:24;4.03;;;3.72;;
30048;SDS011;16879;50.852;15.602;2022-10-16T01:44:02;5.93;;;3.58;;
30048;SDS011;16879;50.852;15.602;2022-10-16T01:46:35;4.25;;;3.67;;
30048;SDS011;16879;50.852;15.602;2022-10-16T01:49:02;4.90;;;3.65;;
30048;SDS011;16879;50.852;15.602;2022-10-16T01:51:29;4.13;;;3.72;;
30048;SDS011;16879;50.852;15.602;2022-10-16T01:53:56;4.57;;;4.00;;
30048;SDS011;16879;50.852;15.602;2022-10-16T01:56:25;5.80;;;4.07;;
30048;SDS011;16879;50.852;15.602;2022-10-16T01:58:58;4.65;;;3.95;;
30048;SDS011;16879;50.852;15.602;2022-10-16T02:01:26;7.32;;;4.65;;
30048;SDS011;16879;50.852;15.602;2022-10-16T02:03:57;5.20;;;4.70;;
30048;SDS011;16879;50.852;15.602;2022-10-16T02:08:54;6.70;;;4.80;;
30048;SDS011;16879;50.852;15.602;2022-10-16T02:11:21;4.72;;;4.15;;
30048;SDS011;16879;50.852;15.602;2022-10-16T02:13:51;4.68;;;4.28;;
30048;SDS011;16879;50.852;15.602;2022-10-16T02:16:18;7.93;;;6.10;;
30048;SDS011;16879;50.852;15.602;2022-10-16T02:18:45;5.70;;;5.20;;
30048;SDS011;16879;50.852;15.602;2022-10-16T02:21:13;6.32;;;5.72;;
30048;SDS011;16879;50.852;15.602;2022-10-16T02:23:45;5.13;;;4.63;;
30048;SDS011;16879;50.852;15.602;2022-10-16T02:26:35;8.40;;;7.63;;
30048;SDS011;16879;50.852;15.602;2022-10-16T02:29:10;6.55;;;5.95;;
30048;SDS011;16879;50.852;15.602;2022-10-16T02:31:41;5.30;;;4.80;;
30048;SDS011;16879;50.852;15.602;2022-10-16T02:34:08;6.35;;;4.47;;
30048;SDS011;16879;50.852;15.602;2022-10-16T02:36:36;5.53;;;4.68;;
30048;SDS011;16879;50.852;15.602;2022-10-16T02:39:03;4.63;;;3.75;;
30048;SDS011;16879;50.852;15.602;2022-10-16T02:41:30;3.90;;;3.60;;
30048;SDS011;16879;50.852;15.602;2022-10-16T02:43:58;3.80;;;3.50;;
30048;SDS011;16879;50.852;15.602;2022-10-16T02:46:24;3.83;;;3.53;;
30048;SDS011;16879;50.852;15.602;2022-10-16T02:48:50;3.72;;;3.42;;
30048;SDS011;16879;50.852;15.602;2022-10-16T02:51:16;3.05;;;2.83;;
30048;SDS011;16879;50.852;15.602;2022-10-16T02:53:42;2.38;;;2.22;;
30048;SDS011;16879;50.852;15.602;2022-10-16T02:56:08;3.58;;;2.30;;
30048;SDS011;16879;50.852;15.602;2022-10-16T02:58:35;2.67;;;2.42;;
30048;SDS011;16879;50.852;15.602;2022-10-16T03:01:01;2.58;;;2.38;;
30048;SDS011;16879;50.852;15.602;2022-10-16T03:03:27;2.15;;;1.95;;
30048;SDS011;16879;50.852;15.602;2022-10-16T03:05:53;3.13;;;2.47;;
30048;SDS011;16879;50.852;15.602;2022-10-16T03:08:19;2.15;;;2.00;;
30048;SDS011;16879;50.852;15.602;2022-10-16T03:10:50;3.10;;;2.28;;
30048;SDS011;16879;50.852;15.602;2022-10-16T03:13:16;1.75;;;1.65;;
30048;SDS011;16879;50.852;15.602;2022-10-16T03:15:43;2.97;;;2.53;;
30048;SDS011;16879;50.852;15.602;2022-10-16T03:18:09;2.22;;;2.13;;
30048;SDS011;16879;50.852;15.602;2022-10-16T03:20:35;2.90;;;2.60;;
30048;SDS011;16879;50.852;15.602;2022-10-16T03:23:01;2.75;;;2.30;;
30048;SDS011;16879;50.852;15.602;2022-10-16T03:25:28;2.55;;;2.35;;
30048;SDS011;16879;50.852;15.602;2022-10-16T03:27:54;2.83;;;2.60;;
30048;SDS011;16879;50.852;15.602;2022-10-16T03:30:20;2.28;;;2.17;;
30048;SDS011;16879;50.852;15.602;2022-10-16T03:32:46;3.63;;;2.70;;
30048;SDS011;16879;50.852;15.602;2022-10-16T03:35:12;2.58;;;2.38;;
30048;SDS011;16879;50.852;15.602;2022-10-16T03:37:39;3.28;;;3.08;;
30048;SDS011;16879;50.852;15.602;2022-10-16T03:40:05;2.38;;;2.28;;
30048;SDS011;16879;50.852;15.602;2022-10-16T03:42:31;4.60;;;3.08;;
30048;SDS011;16879;50.852;15.602;2022-10-16T03:44:58;2.88;;;2.50;;
30048;SDS011;16879;50.852;15.602;2022-10-16T03:47:24;3.70;;;3.05;;
30048;SDS011;16879;50.852;15.602;2022-10-16T03:49:50;2.85;;;2.50;;
30048;SDS011;16879;50.852;15.602;2022-10-16T03:52:16;2.92;;;2.72;;
30048;SDS011;16879;50.852;15.602;2022-10-16T03:54:43;2.00;;;1.90;;
30048;SDS011;16879;50.852;15.602;2022-10-16T03:57:09;2.40;;;2.20;;
30048;SDS011;16879;50.852;15.602;2022-10-16T03:59:35;2.20;;;2.10;;
30048;SDS011;16879;50.852;15.602;2022-10-16T04:02:01;2.33;;;1.73;;
30048;SDS011;16879;50.852;15.602;2022-10-16T04:04:27;2.63;;;2.20;;
30048;SDS011;16879;50.852;15.602;2022-10-16T04:06:54;1.58;;;1.48;;
30048;SDS011;16879;50.852;15.602;2022-10-16T04:09:20;1.70;;;1.50;;
30048;SDS011;16879;50.852;15.602;2022-10-16T04:11:46;1.80;;;1.70;;
30048;SDS011;16879;50.852;15.602;2022-10-16T04:14:12;1.40;;;1.30;;
30048;SDS011;16879;50.852;15.602;2022-10-16T04:16:38;1.30;;;1.20;;
30048;SDS011;16879;50.852;15.602;2022-10-16T04:19:04;2.08;;;1.73;;
30048;SDS011;16879;50.852;15.602;2022-10-16T04:21:31;2.08;;;1.45;;
30048;SDS011;16879;50.852;15.602;2022-10-16T04:23:57;0.98;;;0.98;;
30048;SDS011;16879;50.852;15.602;2022-10-16T04:26:23;2.03;;;1.23;;
30048;SDS011;16879;50.852;15.602;2022-10-16T04:28:49;1.10;;;1.10;;
30048;SDS011;16879;50.852;15.602;2022-10-16T04:31:15;1.40;;;1.30;;
30048;SDS011;16879;50.852;15.602;2022-10-16T04:33:42;1.33;;;1.25;;
30048;SDS011;16879;50.852;15.602;2022-10-16T04:36:08;1.30;;;1.20;;
30048;SDS011;16879;50.852;15.602;2022-10-16T04:38:34;0.90;;;0.90;;
30048;SDS011;16879;50.852;15.602;2022-10-16T04:41:03;0.90;;;0.90;;
30048;SDS011;16879;50.852;15.602;2022-10-16T04:43:30;1.17;;;0.80;;
30048;SDS011;16879;50.852;15.602;2022-10-16T04:45:56;0.88;;;0.88;;
30048;SDS011;16879;50.852;15.602;2022-10-16T04:48:23;1.05;;;1.00;;
30048;SDS011;16879;50.852;15.602;2022-10-16T04:50:49;1.00;;;1.00;;
30048;SDS011;16879;50.852;15.602;2022-10-16T04:53:15;2.35;;;1.38;;
30048;SDS011;16879;50.852;15.602;2022-10-16T04:55:41;1.60;;;1.50;;
30048;SDS011;16879;50.852;15.602;2022-10-16T04:58:08;2.00;;;1.90;;
30048;SDS011;16879;50.852;15.602;2022-10-16T05:00:34;2.13;;;2.00;;
30048;SDS011;16879;50.852;15.602;2022-10-16T05:03:01;1.38;;;1.27;;
30048;SDS011;16879;50.852;15.602;2022-10-16T05:05:31;1.60;;;1.50;;
30048;SDS011;16879;50.852;15.602;2022-10-16T05:07:57;3.83;;;1.92;;
30048;SDS011;16879;50.852;15.602;2022-10-16T05:10:23;2.38;;;2.20;;
30048;SDS011;16879;50.852;15.602;2022-10-16T05:12:50;1.92;;;1.83;;
30048;SDS011;16879;50.852;15.602;2022-10-16T05:15:16;3.08;;;2.13;;
30048;SDS011;16879;50.852;15.602;2022-10-16T05:17:43;2.00;;;1.90;;
30048;SDS011;16879;50.852;15.602;2022-10-16T05:20:09;2.03;;;1.88;;
30048;SDS011;16879;50.852;15.602;2022-10-16T05:22:36;2.35;;;2.17;;
30048;SDS011;16879;50.852;15.602;2022-10-16T05:25:02;3.05;;;2.60;;
30048;SDS011;16879;50.852;15.602;2022-10-16T05:27:28;2.83;;;2.63;;
30048;SDS011;16879;50.852;15.602;2022-10-16T05:29:55;2.65;;;2.45;;
30048;SDS011;16879;50.852;15.602;2022-10-16T05:32:21;2.55;;;2.40;;
30048;SDS011;16879;50.852;15.602;2022-10-16T05:34:47;2.55;;;2.45;;
30048;SDS011;16879;50.852;15.602;2022-10-16T05:37:13;2.75;;;2.55;;
30048;SDS011;16879;50.852;15.602;2022-10-16T05:39:40;2.42;;;2.22;;
30048;SDS011;16879;50.852;15.602;2022-10-16T05:42:06;2.22;;;2.13;;
30048;SDS011;16879;50.852;15.602;2022-10-16T05:44:32;3.00;;;2.80;;
30048;SDS011;16879;50.852;15.602;2022-10-16T05:46:59;2.30;;;2.13;;
30048;SDS011;16879;50.852;15.602;2022-10-16T05:49:25;8.95;;;2.60;;
30048;SDS011;16879;50.852;15.602;2022-10-16T05:51:52;2.67;;;2.35;;
30048;SDS011;16879;50.852;15.602;2022-10-16T05:54:18;6.72;;;2.38;;
30048;SDS011;16879;50.852;15.602;2022-10-16T05:56:45;2.67;;;2.13;;
30048;SDS011;16879;50.852;15.602;2022-10-16T05:59:11;3.15;;;2.42;;
30048;SDS011;16879;50.852;15.602;2022-10-16T06:01:39;5.15;;;2.05;;
30048;SDS011;16879;50.852;15.602;2022-10-16T06:04:05;2.28;;;2.08;;
30048;SDS011;16879;50.852;15.602;2022-10-16T06:06:31;6.78;;;2.15;;
30048;SDS011;16879;50.852;15.602;2022-10-16T06:08:58;2.45;;;2.25;;
30048;SDS011;16879;50.852;15.602;2022-10-16T06:11:26;3.85;;;2.05;;
30048;SDS011;16879;50.852;15.602;2022-10-16T06:13:55;4.38;;;2.53;;
30048;SDS011;16879;50.852;15.602;2022-10-16T06:16:22;5.28;;;2.67;;
30048;SDS011;16879;50.852;15.602;2022-10-16T06:18:55;7.20;;;3.97;;
30048;SDS011;16879;50.852;15.602;2022-10-16T06:21:22;6.70;;;3.30;;
30048;SDS011;16879;50.852;15.602;2022-10-16T06:24:11;3.22;;;2.13;;
30048;SDS011;16879;50.852;15.602;2022-10-16T06:26:39;2.83;;;2.60;;
30048;SDS011;16879;50.852;15.602;2022-10-16T06:29:05;3.78;;;2.22;;
30048;SDS011;16879;50.852;15.602;2022-10-16T06:31:36;3.15;;;2.05;;
30048;SDS011;16879;50.852;15.602;2022-10-16T06:34:03;3.22;;;2.90;;
30048;SDS011;16879;50.852;15.602;2022-10-16T06:36:35;4.50;;;3.25;;
30048;SDS011;16879;50.852;15.602;2022-10-16T06:39:05;5.03;;;4.05;;
30048;SDS011;16879;50.852;15.602;2022-10-16T06:41:34;3.60;;;3.15;;
30048;SDS011;16879;50.852;15.602;2022-10-16T06:44:01;4.70;;;4.28;;
30048;SDS011;16879;50.852;15.602;2022-10-16T06:46:30;4.07;;;3.17;;
30048;SDS011;16879;50.852;15.602;2022-10-16T06:48:56;3.85;;;3.38;;
30048;SDS011;16879;50.852;15.602;2022-10-16T06:51:23;3.63;;;3.33;;
30048;SDS011;16879;50.852;15.602;2022-10-16T06:54:02;3.47;;;3.17;;
30048;SDS011;16879;50.852;15.602;2022-10-16T06:56:28;3.83;;;3.45;;
30048;SDS011;16879;50.852;15.602;2022-10-16T06:58:56;4.45;;;3.72;;
30048;SDS011;16879;50.852;15.602;2022-10-16T07:01:23;2.90;;;2.70;;
30048;SDS011;16879;50.852;15.602;2022-10-16T07:03:50;3.80;;;2.67;;
30048;SDS011;16879;50.852;15.602;2022-10-16T07:06:17;3.65;;;3.35;;
30048;SDS011;16879;50.852;15.602;2022-10-16T07:08:46;3.58;;;3.28;;
30048;SDS011;16879;50.852;15.602;2022-10-16T07:11:15;4.18;;;3.78;;
30048;SDS011;16879;50.852;15.602;2022-10-16T07:13:42;3.83;;;3.42;;
30048;SDS011;16879;50.852;15.602;2022-10-16T07:16:10;5.00;;;2.80;;
30048;SDS011;16879;50.852;15.602;2022-10-16T07:18:37;4.22;;;3.45;;
30048;SDS011;16879;50.852;15.602;2022-10-16T07:21:09;3.50;;;3.20;;
30048;SDS011;16879;50.852;15.602;2022-10-16T07:23:39;5.40;;;3.55;;
30048;SDS011;16879;50.852;15.602;2022-10-16T07:26:06;2.90;;;2.70;;
30048;SDS011;16879;50.852;15.602;2022-10-16T07:28:40;3.42;;;3.13;;
30048;SDS011;16879;50.852;15.602;2022-10-16T07:31:20;2.90;;;2.70;;
30048;SDS011;16879;50.852;15.602;2022-10-16T07:33:48;3.60;;;3.20;;
30048;SDS011;16879;50.852;15.602;2022-10-16T07:36:15;3.38;;;3.08;;
30048;SDS011;16879;50.852;15.602;2022-10-16T07:38:42;3.65;;;3.35;;
30048;SDS011;16879;50.852;15.602;2022-10-16T07:41:10;3.33;;;2.85;;
30048;SDS011;16879;50.852;15.602;2022-10-16T07:43:37;5.75;;;3.75;;
30048;SDS011;16879;50.852;15.602;2022-10-16T07:46:04;4.03;;;3.30;;
30048;SDS011;16879;50.852;15.602;2022-10-16T07:48:31;4.45;;;3.72;;
30048;SDS011;16879;50.852;15.602;2022-10-16T07:51:13;4.30;;;4.00;;
30048;SDS011;16879;50.852;15.602;2022-10-16T07:53:41;4.63;;;4.22;;
30048;SDS011;16879;50.852;15.602;2022-10-16T07:56:11;3.58;;;3.38;;
30048;SDS011;16879;50.852;15.602;2022-10-16T07:58:43;4.00;;;3.70;;
30048;SDS011;16879;50.852;15.602;2022-10-16T08:01:10;3.90;;;3.70;;
30048;SDS011;16879;50.852;15.602;2022-10-16T08:03:38;5.38;;;4.88;;
30048;SDS011;16879;50.852;15.602;2022-10-16T08:06:07;4.10;;;3.80;;
30048;SDS011;16879;50.852;15.602;2022-10-16T08:08:33;4.50;;;4.20;;
30048;SDS011;16879;50.852;15.602;2022-10-16T08:11:00;4.03;;;3.60;;
30048;SDS011;16879;50.852;15.602;2022-10-16T08:13:29;4.70;;;3.55;;
30048;SDS011;16879;50.852;15.602;2022-10-16T08:15:55;3.60;;;3.40;;
30048;SDS011;16879;50.852;15.602;2022-10-16T08:18:21;4.03;;;3.83;;
30048;SDS011;16879;50.852;15.602;2022-10-16T08:20:54;3.40;;;3.20;;
30048;SDS011;16879;50.852;15.602;2022-10-16T08:23:22;3.97;;;3.67;;
30048;SDS011;16879;50.852;15.602;2022-10-16T08:25:48;3.40;;;3.00;;
30048;SDS011;16879;50.852;15.602;2022-10-16T08:28:14;2.70;;;2.50;;
30048;SDS011;16879;50.852;15.602;2022-10-16T08:30:41;3.40;;;3.17;;
30048;SDS011;16879;50.852;15.602;2022-10-16T08:33:07;4.05;;;3.72;;
30048;SDS011;16879;50.852;15.602;2022-10-16T08:35:34;3.83;;;3.55;;
30048;SDS011;16879;50.852;15.602;2022-10-16T08:38:00;4.43;;;4.00;;
30048;SDS011;16879;50.852;15.602;2022-10-16T08:40:32;4.40;;;4.10;;
30048;SDS011;16879;50.852;15.602;2022-10-16T08:49:00;4.30;;;3.90;;
30048;SDS011;16879;50.852;15.602;2022-10-16T08:51:33;3.45;;;3.25;;
30048;SDS011;16879;50.852;15.602;2022-10-16T08:54:06;4.05;;;3.65;;
30048;SDS011;16879;50.852;15.602;2022-10-16T08:56:34;2.97;;;2.78;;
30048;SDS011;16879;50.852;15.602;2022-10-16T08:59:00;2.65;;;2.45;;
30048;SDS011;16879;50.852;15.602;2022-10-16T09:01:37;2.53;;;2.33;;
30048;SDS011;16879;50.852;15.602;2022-10-16T09:06:56;3.22;;;2.28;;
30048;SDS011;16879;50.852;15.602;2022-10-16T09:14:52;3.60;;;2.92;;
30048;SDS011;16879;50.852;15.602;2022-10-16T09:17:39;3.38;;;2.53;;
30048;SDS011;16879;50.852;15.602;2022-10-16T09:22:41;2.10;;;1.98;;
30048;SDS011;16879;50.852;15.602;2022-10-16T09:25:19;1.50;;;1.40;;
30048;SDS011;16879;50.852;15.602;2022-10-16T09:27:47;1.30;;;1.27;;
30048;SDS011;16879;50.852;15.602;2022-10-16T09:30:18;1.20;;;1.10;;
30048;SDS011;16879;50.852;15.602;2022-10-16T09:38:24;1.08;;;1.08;;
30048;SDS011;16879;50.852;15.602;2022-10-16T09:40:52;1.60;;;1.30;;
30048;SDS011;16879;50.852;15.602;2022-10-16T09:43:24;0.90;;;0.90;;
30048;SDS011;16879;50.852;15.602;2022-10-16T09:46:21;2.25;;;1.40;;
30048;SDS011;16879;50.852;15.602;2022-10-16T09:49:04;0.98;;;0.98;;
30048;SDS011;16879;50.852;15.602;2022-10-16T09:51:51;1.15;;;1.10;;
30048;SDS011;16879;50.852;15.602;2022-10-16T09:58:22;1.52;;;1.42;;
30048;SDS011;16879;50.852;15.602;2022-10-16T10:00:52;2.10;;;1.83;;
30048;SDS011;16879;50.852;15.602;2022-10-16T10:03:55;1.60;;;1.50;;
30048;SDS011;16879;50.852;15.602;2022-10-16T10:06:31;1.55;;;1.45;;
30048;SDS011;16879;50.852;15.602;2022-10-16T10:09:28;2.35;;;2.08;;
30048;SDS011;16879;50.852;15.602;2022-10-16T10:12:04;1.63;;;1.52;;
30048;SDS011;16879;50.852;15.602;2022-10-16T10:14:55;4.78;;;1.30;;
30048;SDS011;16879;50.852;15.602;2022-10-16T10:17:32;2.45;;;1.50;;
30048;SDS011;16879;50.852;15.602;2022-10-16T10:23:23;1.27;;;1.27;;
30048;SDS011;16879;50.852;15.602;2022-10-16T10:26:15;3.03;;;1.27;;
30048;SDS011;16879;50.852;15.602;2022-10-16T11:17:33;2.67;;;1.00;;
30048;SDS011;16879;50.852;15.602;2022-10-16T11:29:22;1.42;;;1.33;;
30048;SDS011;16879;50.852;15.602;2022-10-16T11:32:05;1.05;;;1.05;;
30048;SDS011;16879;50.852;15.602;2022-10-16T11:38:14;2.17;;;1.23;;
30048;SDS011;16879;50.852;15.602;2022-10-16T11:47:40;1.95;;;1.13;;
30048;SDS011;16879;50.852;15.602;2022-10-16T11:50:23;1.65;;;1.52;;
30048;SDS011;16879;50.852;15.602;2022-10-16T11:56:03;1.40;;;1.30;;
30048;SDS011;16879;50.852;15.602;2022-10-16T12:01:49;1.45;;;1.35;;
30048;SDS011;16879;50.852;15.602;2022-10-16T12:04:42;3.28;;;1.45;;
30048;SDS011;16879;50.852;15.602;2022-10-16T12:07:14;2.20;;;1.45;;
30048;SDS011;16879;50.852;15.602;2022-10-16T12:09:44;1.33;;;1.23;;
30048;SDS011;16879;50.852;15.602;2022-10-16T12:12:37;2.05;;;1.45;;
30048;SDS011;16879;50.852;15.602;2022-10-16T12:15:20;1.85;;;1.13;;
30048;SDS011;16879;50.852;15.602;2022-10-16T12:17:54;1.25;;;1.15;;
30048;SDS011;16879;50.852;15.602;2022-10-16T12:23:01;1.13;;;1.02;;
30048;SDS011;16879;50.852;15.602;2022-10-16T12:25:31;2.78;;;1.38;;
30048;SDS011;16879;50.852;15.602;2022-10-16T12:28:07;1.73;;;1.17;;
30048;SDS011;16879;50.852;15.602;2022-10-16T12:30:58;1.17;;;1.10;;
30048;SDS011;16879;50.852;15.602;2022-10-16T12:33:27;1.30;;;1.20;;
30048;SDS011;16879;50.852;15.602;2022-10-16T12:35:53;6.13;;;1.70;;
30048;SDS011;16879;50.852;15.602;2022-10-16T12:41:02;1.60;;;1.50;;
30048;SDS011;16879;50.852;15.602;2022-10-16T12:46:02;1.55;;;1.45;;
30048;SDS011;16879;50.852;15.602;2022-10-16T12:48:29;1.77;;;1.48;;
30048;SDS011;16879;50.852;15.602;2022-10-16T12:50:55;3.35;;;1.63;;
30048;SDS011;16879;50.852;15.602;2022-10-16T12:53:25;1.17;;;1.08;;
30048;SDS011;16879;50.852;15.602;2022-10-16T12:55:56;1.45;;;1.35;;
30048;SDS011;16879;50.852;15.602;2022-10-16T13:20:58;1.48;;;1.38;;
30048;SDS011;16879;50.852;15.602;2022-10-16T13:26:17;3.42;;;1.75;;
30048;SDS011;16879;50.852;15.602;2022-10-16T13:29:04;5.68;;;1.60;;
30048;SDS011;16879;50.852;15.602;2022-10-16T13:31:31;2.92;;;1.55;;
30048;SDS011;16879;50.852;15.602;2022-10-16T13:34:17;2.60;;;2.25;;
30048;SDS011;16879;50.852;15.602;2022-10-16T13:36:53;2.55;;;1.80;;
30048;SDS011;16879;50.852;15.602;2022-10-16T13:39:29;1.90;;;1.80;;
30048;SDS011;16879;50.852;15.602;2022-10-16T13:44:50;1.95;;;1.80;;
30048;SDS011;16879;50.852;15.602;2022-10-16T13:47:17;2.95;;;1.50;;
30048;SDS011;16879;50.852;15.602;2022-10-16T13:50:11;1.48;;;1.38;;
30048;SDS011;16879;50.852;15.602;2022-10-16T13:52:38;1.80;;;1.70;;
30048;SDS011;16879;50.852;15.602;2022-10-16T13:55:11;2.35;;;1.98;;
30048;SDS011;16879;50.852;15.602;2022-10-16T13:57:42;1.90;;;1.80;;
30048;SDS011;16879;50.852;15.602;2022-10-16T14:00:22;3.10;;;2.42;;
30048;SDS011;16879;50.852;15.602;2022-10-16T14:02:55;2.88;;;1.80;;
30048;SDS011;16879;50.852;15.602;2022-10-16T14:05:26;2.75;;;2.15;;
30048;SDS011;16879;50.852;15.602;2022-10-16T14:07:53;2.10;;;1.88;;
30048;SDS011;16879;50.852;15.602;2022-10-16T14:10:28;4.40;;;1.85;;
30048;SDS011;16879;50.852;15.602;2022-10-16T14:12:57;2.05;;;1.77;;
30048;SDS011;16879;50.852;15.602;2022-10-16T14:15:32;1.95;;;1.85;;
30048;SDS011;16879;50.852;15.602;2022-10-16T14:18:01;1.80;;;1.70;;
30048;SDS011;16879;50.852;15.602;2022-10-16T14:20:29;2.00;;;1.75;;
30048;SDS011;16879;50.852;15.602;2022-10-16T14:23:03;2.58;;;2.08;;
30048;SDS011;16879;50.852;15.602;2022-10-16T14:25:45;1.65;;;1.55;;
30048;SDS011;16879;50.852;15.602;2022-10-16T14:28:18;2.58;;;1.58;;
30048;SDS011;16879;50.852;15.602;2022-10-16T14:33:20;1.52;;;1.40;;
30048;SDS011;16879;50.852;15.602;2022-10-16T14:38:35;2.53;;;1.92;;
30048;SDS011;16879;50.852;15.602;2022-10-16T14:41:13;3.25;;;1.60;;
30048;SDS011;16879;50.852;15.602;2022-10-16T14:43:41;1.85;;;1.75;;
30048;SDS011;16879;50.852;15.602;2022-10-16T14:46:12;1.50;;;1.40;;
30048;SDS011;16879;50.852;15.602;2022-10-16T14:48:45;2.35;;;2.08;;
30048;SDS011;16879;50.852;15.602;2022-10-16T14:51:17;2.15;;;1.50;;
30048;SDS011;16879;50.852;15.602;2022-10-16T14:53:44;3.08;;;2.00;;
30048;SDS011;16879;50.852;15.602;2022-10-16T14:56:18;1.52;;;1.40;;
30048;SDS011;16879;50.852;15.602;2022-10-16T14:58:54;4.25;;;1.80;;
30048;SDS011;16879;50.852;15.602;2022-10-16T15:01:21;2.50;;;1.92;;
30048;SDS011;16879;50.852;15.602;2022-10-16T15:03:47;2.17;;;1.75;;
30048;SDS011;16879;50.852;15.602;2022-10-16T15:06:14;1.67;;;1.58;;
30048;SDS011;16879;50.852;15.602;2022-10-16T15:08:41;3.28;;;1.63;;
30048;SDS011;16879;50.852;15.602;2022-10-16T15:11:09;3.03;;;1.92;;
30048;SDS011;16879;50.852;15.602;2022-10-16T15:13:41;2.80;;;1.83;;
30048;SDS011;16879;50.852;15.602;2022-10-16T15:16:11;2.03;;;1.92;;
30048;SDS011;16879;50.852;15.602;2022-10-16T15:18:40;2.10;;;2.00;;
30048;SDS011;16879;50.852;15.602;2022-10-16T15:21:07;2.08;;;1.88;;
30048;SDS011;16879;50.852;15.602;2022-10-16T15:23:34;2.33;;;1.70;;
30048;SDS011;16879;50.852;15.602;2022-10-16T15:26:01;2.92;;;2.30;;
30048;SDS011;16879;50.852;15.602;2022-10-16T15:31:14;3.70;;;3.15;;
30048;SDS011;16879;50.852;15.602;2022-10-16T15:33:41;3.80;;;2.85;;
30048;SDS011;16879;50.852;15.602;2022-10-16T15:36:08;3.05;;;2.75;;
30048;SDS011;16879;50.852;15.602;2022-10-16T15:38:34;2.47;;;2.25;;
30048;SDS011;16879;50.852;15.602;2022-10-16T15:41:00;3.00;;;2.20;;
30048;SDS011;16879;50.852;15.602;2022-10-16T15:43:27;2.20;;;2.00;;
30048;SDS011;16879;50.852;15.602;2022-10-16T15:46:04;2.13;;;1.60;;
30048;SDS011;16879;50.852;15.602;2022-10-16T15:48:31;2.03;;;1.73;;
30048;SDS011;16879;50.852;15.602;2022-10-16T15:50:59;3.30;;;2.10;;
30048;SDS011;16879;50.852;15.602;2022-10-16T15:53:26;2.15;;;1.88;;
30048;SDS011;16879;50.852;15.602;2022-10-16T15:55:52;1.50;;;1.40;;
30048;SDS011;16879;50.852;15.602;2022-10-16T15:58:19;2.13;;;1.67;;
30048;SDS011;16879;50.852;15.602;2022-10-16T16:00:53;3.08;;;2.33;;
30048;SDS011;16879;50.852;15.602;2022-10-16T16:03:20;1.52;;;1.42;;
30048;SDS011;16879;50.852;15.602;2022-10-16T16:05:51;1.70;;;1.60;;
30048;SDS011;16879;50.852;15.602;2022-10-16T16:08:22;2.35;;;2.13;;
30048;SDS011;16879;50.852;15.602;2022-10-16T16:10:58;3.60;;;2.35;;
30048;SDS011;16879;50.852;15.602;2022-10-16T16:13:24;2.80;;;2.30;;
30048;SDS011;16879;50.852;15.602;2022-10-16T16:15:50;2.42;;;2.22;;
30048;SDS011;16879;50.852;15.602;2022-10-16T16:18:17;3.38;;;2.13;;
30048;SDS011;16879;50.852;15.602;2022-10-16T16:20:43;2.55;;;2.35;;
30048;SDS011;16879;50.852;15.602;2022-10-16T16:23:09;13.25;;;3.25;;
30048;SDS011;16879;50.852;15.602;2022-10-16T16:25:35;1.98;;;1.88;;
30048;SDS011;16879;50.852;15.602;2022-10-16T16:28:02;3.13;;;2.08;;
30048;SDS011;16879;50.852;15.602;2022-10-16T16:30:28;2.70;;;2.05;;
30048;SDS011;16879;50.852;15.602;2022-10-16T16:32:54;4.40;;;2.15;;
30048;SDS011;16879;50.852;15.602;2022-10-16T16:35:20;2.40;;;2.20;;
30048;SDS011;16879;50.852;15.602;2022-10-16T16:37:46;3.22;;;2.13;;
30048;SDS011;16879;50.852;15.602;2022-10-16T16:40:12;2.80;;;2.38;;
30048;SDS011;16879;50.852;15.602;2022-10-16T16:42:38;4.57;;;3.20;;
30048;SDS011;16879;50.852;15.602;2022-10-16T16:45:05;5.25;;;4.78;;
30048;SDS011;16879;50.852;15.602;2022-10-16T16:47:31;6.75;;;4.80;;
30048;SDS011;16879;50.852;15.602;2022-10-16T16:49:57;4.90;;;4.10;;
30048;SDS011;16879;50.852;15.602;2022-10-16T16:52:23;6.20;;;4.32;;
30048;SDS011;16879;50.852;15.602;2022-10-16T16:54:49;4.22;;;3.70;;
30048;SDS011;16879;50.852;15.602;2022-10-16T16:57:19;4.68;;;4.15;;
30048;SDS011;16879;50.852;15.602;2022-10-16T16:59:45;4.13;;;3.70;;
30048;SDS011;16879;50.852;15.602;2022-10-16T17:02:12;4.22;;;3.83;;
30048;SDS011;16879;50.852;15.602;2022-10-16T17:04:38;5.53;;;4.07;;
30048;SDS011;16879;50.852;15.602;2022-10-16T17:07:04;6.55;;;4.88;;
30048;SDS011;16879;50.852;15.602;2022-10-16T17:09:31;8.55;;;7.07;;
30048;SDS011;16879;50.852;15.602;2022-10-16T17:11:58;11.77;;;9.63;;
30048;SDS011;16879;50.852;15.602;2022-10-16T17:14:25;11.30;;;9.15;;
30048;SDS011;16879;50.852;15.602;2022-10-16T17:16:51;9.63;;;7.32;;
30048;SDS011;16879;50.852;15.602;2022-10-16T17:19:18;10.02;;;7.97;;
30048;SDS011;16879;50.852;15.602;2022-10-16T17:21:44;11.48;;;9.43;;
30048;SDS011;16879;50.852;15.602;2022-10-16T17:24:13;22.00;;;19.67;;
30048;SDS011;16879;50.852;15.602;2022-10-16T17:26:39;15.57;;;11.73;;
30048;SDS011;16879;50.852;15.602;2022-10-16T17:29:11;14.35;;;11.85;;
30048;SDS011;16879;50.852;15.602;2022-10-16T17:31:37;12.75;;;11.18;;
30048;SDS011;16879;50.852;15.602;2022-10-16T17:34:04;12.25;;;10.95;;
30048;SDS011;16879;50.852;15.602;2022-10-16T17:36:36;11.60;;;10.20;;
30048;SDS011;16879;50.852;15.602;2022-10-16T17:39:07;10.50;;;9.50;;
30048;SDS011;16879;50.852;15.602;2022-10-16T17:41:38;9.93;;;9.05;;